createdAt,value
2018-02-06T00:00:42.760Z,90.35
2018-02-06T00:01:42.779Z,89.40
2018-02-06T00:02:42.725Z,89.22
2018-02-06T00:03:42.708Z,89.88
2018-02-06T00:04:42.689Z,89.69
2018-02-06T00:05:42.672Z,89.59
2018-02-06T00:06:42.654Z,89.59
2018-02-06T00:07:42.637Z,89.59
2018-02-06T00:08:42.619Z,89.78
2018-02-06T00:09:42.601Z,89.69
2018-02-06T00:10:42.583Z,89.78
2018-02-06T00:11:42.566Z,89.50
2018-02-06T00:12:42.548Z,89.59
2018-02-06T00:13:42.531Z,89.40
2018-02-06T00:14:42.513Z,89.12
2018-02-06T00:15:42.495Z,89.78
2018-02-06T00:16:42.477Z,89.50
2018-02-06T00:17:42.460Z,89.31
2018-02-06T00:18:42.441Z,89.69
2018-02-06T00:19:42.424Z,89.69
2018-02-06T00:20:42.406Z,89.31
2018-02-06T00:21:42.387Z,89.40
2018-02-06T00:22:42.376Z,89.50
2018-02-06T00:23:42.354Z,89.69
2018-02-06T00:24:42.334Z,89.78
2018-02-06T00:25:42.317Z,89.22
2018-02-06T00:26:42.302Z,89.50
2018-02-06T00:27:42.281Z,90.45
2018-02-06T00:28:42.263Z,89.97
2018-02-06T00:29:42.246Z,89.69
2018-02-06T00:30:42.228Z,89.69
2018-02-06T00:31:42.210Z,89.69
2018-02-06T00:32:42.191Z,89.78
2018-02-06T00:33:42.176Z,90.92
2018-02-06T00:34:42.157Z,90.45
2018-02-06T00:35:42.138Z,90.54
2018-02-06T00:36:42.121Z,90.82
2018-02-06T00:37:42.105Z,89.78
2018-02-06T00:38:42.087Z,90.73
2018-02-06T00:39:42.110Z,90.64
2018-02-06T00:40:42.049Z,90.64
2018-02-06T00:41:42.031Z,90.26
2018-02-06T00:42:42.015Z,90.64
2018-02-06T00:43:41.995Z,90.35
2018-02-06T00:44:41.977Z,91.11
2018-02-06T00:45:41.962Z,91.11
2018-02-06T00:46:41.943Z,91.01
2018-02-06T00:47:41.924Z,91.58
2018-02-06T00:48:41.906Z,91.39
2018-02-06T00:49:41.888Z,90.82
2018-02-06T00:50:41.871Z,91.58
2018-02-06T00:51:41.853Z,91.11
2018-02-06T00:52:41.836Z,91.39
2018-02-06T00:53:41.818Z,91.11
2018-02-06T00:54:41.800Z,91.01
2018-02-06T00:55:41.782Z,91.67
2018-02-06T00:56:41.772Z,91.58
2018-02-06T00:57:41.751Z,91.11
2018-02-06T00:58:41.729Z,91.20
2018-02-06T00:59:41.711Z,91.30
2018-02-06T01:00:41.693Z,91.20
2018-02-06T01:01:41.679Z,90.92
2018-02-06T01:02:41.658Z,91.20
2018-02-06T01:03:41.639Z,91.20
2018-02-06T01:04:41.620Z,91.30
2018-02-06T01:05:41.602Z,90.92
2018-02-06T01:06:41.585Z,90.64
2018-02-06T01:07:41.566Z,90.64
2018-02-06T01:08:41.548Z,90.73
2018-02-06T01:09:41.533Z,91.01
2018-02-06T01:10:41.513Z,91.11
2018-02-06T01:11:41.496Z,91.30
2018-02-06T01:12:41.476Z,91.39
2018-02-06T01:13:41.460Z,91.11
2018-02-06T01:14:41.441Z,90.73
2018-02-06T01:15:41.423Z,90.82
2018-02-06T01:16:41.406Z,90.35
2018-02-06T01:17:41.387Z,90.45
2018-02-06T01:18:41.369Z,90.35
2018-02-06T01:19:41.352Z,90.35
2018-02-06T01:20:41.332Z,89.69
2018-02-06T01:21:41.314Z,90.07
2018-02-06T01:22:41.299Z,90.16
2018-02-06T01:23:41.278Z,90.26
2018-02-06T01:24:41.260Z,90.26
2018-02-06T01:25:41.241Z,90.92
2018-02-06T01:26:41.250Z,90.64
2018-02-06T01:27:41.206Z,91.20
2018-02-06T01:28:41.188Z,91.30
2018-02-06T01:29:41.169Z,91.39
2018-02-06T01:30:41.151Z,90.82
2018-02-06T01:31:41.134Z,90.54
2018-02-06T01:32:41.113Z,90.35
2018-02-06T01:33:41.100Z,90.54
2018-02-06T01:34:41.085Z,91.20
2018-02-06T01:35:41.061Z,91.39
2018-02-06T01:36:41.042Z,90.82
2018-02-06T01:37:41.024Z,90.92
2018-02-06T01:38:41.007Z,90.82
2018-02-06T01:39:40.989Z,90.73
2018-02-06T01:40:40.970Z,91.49
2018-02-06T01:41:40.952Z,91.30
2018-02-06T01:42:40.942Z,91.20
2018-02-06T01:43:40.916Z,90.35
2018-02-06T01:44:40.897Z,91.20
2018-02-06T01:45:40.879Z,91.39
2018-02-06T01:46:40.863Z,91.01
2018-02-06T01:47:40.843Z,90.64
2018-02-06T01:48:40.827Z,90.92
2018-02-06T01:49:40.807Z,90.16
2018-02-06T01:50:40.788Z,90.45
2018-02-06T01:51:40.771Z,90.82
2018-02-06T01:52:40.752Z,90.54
2018-02-06T01:53:40.734Z,90.26
2018-02-06T01:54:40.719Z,90.26
2018-02-06T01:55:40.698Z,90.92
2018-02-06T01:56:40.679Z,90.64
2018-02-06T01:57:40.661Z,91.49
2018-02-06T01:58:40.643Z,90.92
2018-02-06T01:59:40.627Z,91.39
2018-02-06T02:00:40.607Z,91.58
2018-02-06T02:01:40.591Z,91.20
2018-02-06T02:02:40.570Z,90.92
2018-02-06T02:03:40.553Z,90.16
2018-02-06T02:04:40.533Z,90.54
2018-02-06T02:05:40.516Z,90.45
2018-02-06T02:06:40.501Z,90.64
2018-02-06T02:07:40.480Z,90.82
2018-02-06T02:08:40.461Z,90.82
2018-02-06T02:09:40.442Z,90.92
2018-02-06T02:10:40.426Z,90.54
2018-02-06T02:11:40.408Z,90.73
2018-02-06T02:12:40.388Z,90.54
2018-02-06T02:13:40.371Z,90.35
2018-02-06T02:14:40.352Z,90.82
2018-02-06T02:15:40.335Z,90.82
2018-02-06T02:16:40.317Z,90.64
2018-02-06T02:17:40.300Z,90.92
2018-02-06T02:18:40.281Z,90.35
2018-02-06T02:19:40.263Z,90.26
2018-02-06T02:20:40.244Z,90.45
2018-02-06T02:21:40.226Z,90.45
2018-02-06T02:22:40.209Z,90.35
2018-02-06T02:23:40.191Z,90.16
2018-02-06T02:24:40.174Z,89.78
2018-02-06T02:25:40.154Z,89.69
2018-02-06T02:26:40.137Z,89.69
2018-02-06T02:27:40.119Z,90.07
2018-02-06T02:28:40.108Z,90.35
2018-02-06T02:29:40.082Z,90.16
2018-02-06T02:30:40.065Z,89.50
2018-02-06T02:31:40.049Z,90.73
2018-02-06T02:32:40.029Z,89.22
2018-02-06T02:33:40.011Z,89.59
2018-02-06T02:34:39.993Z,90.35
2018-02-06T02:35:39.974Z,90.73
2018-02-06T02:36:39.955Z,89.97
2018-02-06T02:37:39.938Z,90.26
2018-02-06T02:38:39.920Z,89.69
2018-02-06T02:39:39.903Z,89.59
2018-02-06T02:40:39.884Z,89.59
2018-02-06T02:41:39.866Z,89.50
2018-02-06T04:38:37.794Z,90.82
2018-02-06T04:39:37.776Z,90.73
2018-02-06T04:40:37.761Z,91.11
2018-02-06T04:41:37.742Z,90.73
2018-02-06T04:42:37.725Z,91.39
2018-02-06T04:43:37.707Z,91.58
2018-02-06T04:44:37.689Z,91.58
2018-02-06T04:45:37.673Z,91.67
2018-02-06T04:46:37.655Z,91.86
2018-02-06T04:47:37.639Z,92.24
2018-02-06T04:48:37.622Z,91.49
2018-02-06T04:49:37.602Z,91.96
2018-02-06T04:50:37.585Z,91.49
2018-02-06T04:51:37.568Z,91.11
2018-02-06T04:52:37.551Z,90.92
2018-02-06T04:53:37.534Z,90.92
2018-02-06T04:54:37.517Z,91.39
2018-02-06T04:55:37.500Z,91.20
2018-02-06T04:56:37.482Z,91.20
2018-02-06T04:57:37.465Z,91.49
2018-02-06T04:58:37.447Z,90.92
2018-02-06T04:59:37.430Z,90.92
2018-02-06T05:00:37.412Z,90.92
2018-02-06T05:01:37.396Z,91.39
2018-02-06T05:02:37.379Z,91.67
2018-02-06T05:03:37.361Z,91.67
2018-02-06T05:04:37.342Z,91.20
2018-02-06T05:05:37.326Z,91.30
2018-02-06T05:06:37.309Z,91.49
2018-02-06T05:07:37.291Z,91.20
2018-02-06T05:08:37.273Z,91.11
2018-02-06T05:09:37.256Z,91.30
2018-02-06T05:10:37.239Z,91.86
2018-02-06T05:11:37.221Z,91.96
2018-02-06T05:12:37.203Z,91.77
2018-02-06T05:13:37.187Z,91.58
2018-02-06T05:14:37.169Z,91.77
2018-02-06T05:15:37.152Z,91.49
2018-02-06T05:16:37.141Z,91.58
2018-02-06T05:17:37.118Z,91.67
2018-02-06T05:18:37.102Z,91.67
2018-02-06T05:19:37.083Z,91.58
2018-02-06T05:20:37.065Z,92.05
2018-02-06T05:21:37.048Z,92.33
2018-02-06T05:22:37.031Z,92.80
2018-02-06T05:23:37.020Z,91.96
2018-02-06T05:24:36.996Z,92.14
2018-02-06T05:25:36.980Z,92.33
2018-02-06T05:26:36.965Z,92.05
2018-02-06T05:27:36.946Z,91.49
2018-02-06T05:28:36.926Z,91.49
2018-02-06T05:29:36.909Z,91.67
2018-02-06T05:30:36.892Z,91.86
2018-02-06T05:31:36.876Z,91.58
2018-02-06T05:32:36.857Z,91.67
2018-02-06T05:33:36.841Z,91.01
2018-02-06T05:34:36.823Z,91.58
2018-02-06T05:35:36.807Z,91.96
2018-02-06T05:36:36.788Z,91.96
2018-02-06T05:37:36.772Z,92.05
2018-02-06T05:38:36.754Z,92.14
2018-02-06T05:39:36.737Z,92.43
2018-02-06T05:40:36.719Z,92.24
2018-02-06T05:41:36.702Z,92.43
2018-02-06T05:42:36.686Z,92.52
2018-02-06T05:43:36.669Z,92.71
2018-02-06T05:44:36.651Z,91.96
2018-02-06T05:45:36.634Z,92.43
2018-02-06T05:46:36.617Z,92.33
2018-02-06T05:47:36.599Z,92.80
2018-02-06T05:48:36.581Z,93.47
2018-02-06T05:49:36.568Z,92.43
2018-02-06T05:50:36.548Z,92.71
2018-02-06T05:51:36.531Z,92.33
2018-02-06T05:52:36.513Z,92.05
2018-02-06T05:53:36.496Z,92.52
2018-02-06T05:54:36.480Z,91.86
2018-02-06T05:55:36.462Z,91.86
2018-02-06T05:56:36.446Z,91.49
2018-02-06T05:57:36.428Z,91.58
2018-02-06T05:58:36.412Z,90.82
2018-02-06T05:59:36.397Z,91.01
2018-02-06T06:00:36.377Z,90.82
2018-02-06T06:01:36.360Z,90.26
2018-02-06T06:02:36.344Z,90.35
2018-02-06T06:03:36.341Z,90.26
2018-02-06T06:04:36.313Z,90.92
2018-02-06T06:05:36.290Z,90.45
2018-02-06T06:06:36.274Z,90.16
2018-02-06T06:07:36.256Z,90.54
2018-02-06T06:08:36.238Z,90.82
2018-02-06T06:09:36.221Z,90.16
2018-02-06T06:10:36.205Z,90.16
2018-02-06T06:11:36.188Z,90.45
2018-02-06T06:12:36.169Z,90.54
2018-02-06T06:13:36.152Z,90.82
2018-02-06T06:14:36.135Z,90.92
2018-02-06T06:15:36.118Z,90.64
2018-02-06T06:16:36.100Z,90.45
2018-02-06T06:17:36.084Z,90.35
2018-02-06T06:18:36.066Z,90.26
2018-02-06T06:19:36.049Z,90.45
2018-02-06T06:20:36.029Z,90.07
2018-02-06T06:21:36.012Z,90.26
2018-02-06T06:22:35.994Z,89.97
2018-02-06T06:23:35.977Z,90.45
2018-02-06T06:24:35.959Z,90.16
2018-02-06T06:25:35.942Z,90.45
2018-02-06T06:26:35.925Z,90.16
2018-02-06T06:27:35.910Z,90.45
2018-02-06T06:28:35.888Z,89.40
2018-02-06T06:29:35.872Z,90.64
2018-02-06T06:30:35.855Z,90.35
2018-02-06T06:31:35.836Z,90.26
2018-02-06T06:32:35.818Z,91.30
2018-02-06T06:33:35.803Z,91.01
2018-02-06T06:34:35.784Z,91.01
2018-02-06T06:35:35.766Z,90.92
2018-02-06T06:36:35.765Z,91.01
2018-02-06T06:37:35.732Z,91.01
2018-02-06T06:38:35.715Z,91.11
2018-02-06T06:39:35.705Z,91.39
2018-02-06T06:40:35.680Z,90.26
2018-02-06T06:41:35.662Z,90.26
2018-02-06T06:42:35.647Z,91.01
2018-02-06T06:43:35.628Z,91.30
2018-02-06T06:44:35.609Z,91.11
2018-02-06T06:45:35.592Z,91.77
2018-02-06T06:46:35.576Z,91.49
2018-02-06T06:47:35.558Z,91.30
2018-02-06T06:48:35.542Z,90.73
2018-02-06T06:49:35.524Z,91.30
2018-02-06T06:50:35.507Z,91.20
2018-02-06T06:51:35.491Z,91.01
2018-02-06T06:52:35.471Z,90.92
2018-02-06T06:53:35.454Z,91.49
2018-02-06T06:54:35.438Z,90.54
2018-02-06T06:55:35.420Z,91.11
2018-02-06T06:56:35.404Z,90.64
2018-02-06T06:57:35.386Z,90.73
2018-02-06T06:58:35.370Z,91.01
2018-02-06T06:59:35.352Z,91.01
2018-02-06T07:00:35.335Z,91.20
2018-02-06T07:01:35.318Z,91.20
2018-02-06T07:02:35.302Z,91.20
2018-02-06T07:03:35.283Z,91.39
2018-02-06T07:04:35.266Z,91.11
2018-02-06T07:05:35.249Z,91.58
2018-02-06T07:06:35.233Z,91.49
2018-02-06T07:07:35.217Z,91.20
2018-02-06T07:08:35.198Z,91.86
2018-02-06T07:09:35.181Z,91.67
2018-02-06T07:10:35.165Z,91.58
2018-02-06T07:11:35.154Z,91.96
2018-02-06T07:12:35.130Z,91.67
2018-02-06T07:13:35.114Z,91.77
2018-02-06T07:14:35.098Z,91.58
2018-02-06T07:15:35.080Z,91.20
2018-02-06T07:16:35.063Z,91.01
2018-02-06T07:17:35.047Z,91.77
2018-02-06T07:18:35.031Z,91.39
2018-02-06T07:19:35.013Z,91.67
2018-02-06T07:20:34.996Z,91.77
2018-02-06T07:21:34.981Z,91.86
2018-02-06T07:22:34.963Z,92.24
2018-02-06T07:23:34.947Z,92.43
2018-02-06T07:24:34.930Z,92.05
2018-02-06T07:25:34.913Z,92.14
2018-02-06T07:26:34.896Z,92.10
2018-02-06T07:27:34.880Z,91.63
2018-02-06T07:28:34.863Z,91.72
2018-02-06T07:29:34.846Z,91.82
2018-02-06T07:30:34.831Z,91.63
2018-02-06T07:31:34.814Z,92.00
2018-02-06T07:32:34.797Z,92.66
2018-02-06T07:33:34.780Z,92.29
2018-02-06T07:34:34.764Z,92.10
2018-02-06T07:35:34.748Z,91.53
2018-02-06T07:36:34.730Z,91.82
2018-02-06T07:37:34.714Z,91.53
2018-02-06T07:38:34.698Z,90.96
2018-02-06T07:39:34.682Z,90.21
2018-02-06T07:40:34.692Z,91.06
2018-02-06T07:41:34.649Z,91.15
2018-02-06T07:42:34.632Z,91.06
2018-02-06T07:43:34.617Z,90.96
2018-02-06T07:44:34.599Z,90.77
2018-02-06T07:45:34.583Z,90.68
2018-02-06T07:46:34.567Z,90.21
2018-02-06T07:47:34.553Z,90.87
2018-02-06T07:48:34.534Z,91.15
2018-02-06T07:49:34.518Z,91.53
2018-02-06T07:50:34.502Z,90.87
2018-02-06T07:51:34.486Z,90.40
2018-02-06T07:52:34.468Z,90.40
2018-02-06T07:53:34.453Z,91.34
2018-02-06T07:54:34.437Z,91.15
2018-02-06T07:55:34.428Z,90.87
2018-02-06T07:56:34.403Z,90.68
2018-02-06T07:57:34.388Z,90.68
2018-02-06T07:58:34.372Z,90.87
2018-02-06T07:59:34.356Z,90.40
2018-02-06T08:00:34.339Z,90.02
2018-02-06T08:01:34.323Z,89.73
2018-02-06T08:02:34.307Z,89.54
2018-02-06T08:03:34.290Z,89.26
2018-02-06T08:04:34.274Z,88.70
2018-02-06T08:05:34.262Z,89.36
2018-02-06T08:06:34.243Z,89.73
2018-02-06T08:07:34.226Z,89.45
2018-02-06T08:08:34.209Z,89.36
2018-02-06T08:09:34.193Z,88.98
2018-02-06T08:10:34.177Z,89.45
2018-02-06T08:11:34.162Z,89.17
2018-02-06T08:12:34.145Z,89.26
2018-02-06T08:13:34.129Z,88.32
2018-02-06T08:14:34.115Z,88.42
2018-02-06T08:15:34.098Z,88.04
2018-02-06T08:16:34.081Z,87.56
2018-02-06T08:17:34.066Z,87.47
2018-02-06T08:18:34.050Z,87.66
2018-02-06T08:19:34.035Z,87.85
2018-02-06T08:20:34.024Z,87.18
2018-02-06T08:21:34.003Z,86.52
2018-02-06T08:22:33.997Z,86.71
2018-02-06T08:23:33.973Z,86.90
2018-02-06T08:24:33.955Z,87.47
2018-02-06T08:25:33.940Z,87.85
2018-02-06T08:26:33.926Z,87.66
2018-02-06T08:27:33.909Z,87.66
2018-02-06T08:28:33.892Z,87.09
2018-02-06T08:29:33.876Z,86.80
2018-02-06T08:30:33.862Z,87.37
2018-02-06T08:31:33.846Z,87.37
2018-02-06T08:32:33.830Z,87.09
2018-02-06T08:33:33.817Z,87.09
2018-02-06T08:34:33.799Z,86.80
2018-02-06T08:35:33.783Z,86.80
2018-02-06T08:36:33.767Z,87.18
2018-02-06T08:37:33.752Z,87.37
2018-02-06T08:38:33.736Z,87.13
2018-02-06T08:39:33.720Z,87.32
2018-02-06T08:40:33.704Z,86.99
2018-02-06T08:41:33.689Z,86.90
2018-02-06T08:42:33.673Z,86.38
2018-02-06T08:43:33.658Z,86.15
2018-02-06T08:44:33.642Z,86.29
2018-02-06T08:45:33.625Z,86.76
2018-02-06T08:46:33.611Z,86.85
2018-02-06T08:47:33.596Z,86.57
2018-02-06T08:48:33.579Z,86.38
2018-02-06T08:49:33.564Z,86.47
2018-02-06T08:50:33.552Z,86.00
2018-02-06T08:51:33.533Z,86.47
2018-02-06T08:52:33.517Z,86.47
2018-02-06T08:53:33.502Z,86.38
2018-02-06T08:54:33.487Z,86.10
2018-02-06T08:55:33.472Z,85.62
2018-02-06T08:56:33.491Z,85.24
2018-02-06T08:57:33.441Z,84.68
2018-02-06T08:58:33.426Z,85.15
2018-02-06T08:59:33.412Z,85.24
2018-02-06T09:00:33.396Z,85.34
2018-02-06T09:01:33.380Z,85.72
2018-02-06T09:02:33.365Z,85.34
2018-02-06T09:03:33.350Z,85.15
2018-02-06T09:04:33.335Z,85.15
2018-02-06T09:05:33.320Z,84.39
2018-02-06T09:06:33.307Z,84.20
2018-02-06T09:07:33.290Z,84.01
2018-02-06T09:08:33.275Z,84.39
2018-02-06T09:09:33.261Z,84.81
2018-02-06T09:10:33.246Z,84.06
2018-02-06T09:11:33.232Z,83.40
2018-02-06T09:12:33.230Z,82.17
2018-02-06T09:13:33.202Z,80.94
2018-02-06T09:14:33.189Z,82.17
2018-02-06T09:15:33.174Z,81.22
2018-02-06T09:16:33.196Z,82.17
2018-02-06T09:17:33.145Z,82.92
2018-02-06T09:18:33.133Z,82.26
2018-02-06T09:19:33.118Z,81.98
2018-02-06T09:20:33.102Z,83.02
2018-02-06T09:21:33.095Z,83.02
2018-02-06T09:22:33.075Z,83.02
2018-02-06T09:23:33.061Z,82.26
2018-02-06T09:24:33.046Z,82.73
2018-02-06T09:25:33.033Z,81.88
2018-02-06T09:26:33.019Z,81.03
2018-02-06T09:27:33.006Z,82.12
2018-02-06T09:28:32.990Z,83.11
2018-02-06T09:29:32.975Z,82.69
2018-02-06T09:30:32.974Z,82.03
2018-02-06T09:31:32.951Z,81.37
2018-02-06T09:32:32.933Z,82.03
2018-02-06T09:33:32.923Z,82.69
2018-02-06T09:34:32.903Z,83.45
2018-02-06T09:35:32.888Z,83.54
2018-02-06T09:36:32.873Z,83.83
2018-02-06T09:37:32.860Z,84.30
2018-02-06T09:38:32.844Z,84.11
2018-02-06T09:39:32.836Z,84.01
2018-02-06T09:40:32.816Z,84.01
2018-02-06T09:41:32.801Z,83.36
2018-02-06T09:42:32.788Z,83.26
2018-02-06T09:43:32.772Z,83.45
2018-02-06T09:44:32.756Z,83.54
2018-02-06T09:45:32.778Z,84.49
2018-02-06T09:46:32.729Z,84.77
2018-02-06T09:47:32.713Z,84.30
2018-02-06T09:48:32.698Z,84.20
2018-02-06T09:49:32.685Z,83.83
2018-02-06T09:50:32.669Z,84.77
2018-02-06T09:51:32.655Z,84.39
2018-02-06T09:52:32.639Z,84.58
2018-02-06T09:53:32.626Z,84.96
2018-02-06T09:54:32.611Z,84.68
2018-02-06T09:55:32.596Z,84.39
2018-02-06T09:56:32.580Z,84.68
2018-02-06T09:57:32.566Z,84.68
2018-02-06T09:58:32.557Z,84.86
2018-02-06T09:59:32.536Z,85.15
2018-02-06T10:00:32.521Z,84.30
2018-02-06T10:01:32.505Z,84.11
2018-02-06T10:02:32.491Z,84.86
2018-02-06T10:03:32.476Z,85.34
2018-02-06T10:04:32.461Z,84.96
2018-02-06T10:05:32.446Z,84.58
2018-02-06T10:06:32.430Z,85.05
2018-02-06T10:07:32.418Z,84.58
2018-02-06T10:08:32.400Z,85.15
2018-02-06T10:09:32.386Z,84.39
2018-02-06T10:10:32.372Z,85.24
2018-02-06T10:11:32.356Z,84.96
2018-02-06T10:12:32.340Z,84.77
2018-02-06T10:13:32.325Z,85.62
2018-02-06T10:14:32.310Z,85.43
2018-02-06T10:15:32.304Z,85.91
2018-02-06T10:16:32.321Z,85.81
2018-02-06T10:17:32.264Z,85.62
2018-02-06T10:18:32.249Z,85.53
2018-02-06T10:19:32.234Z,86.00
2018-02-06T10:20:32.219Z,85.24
2018-02-06T10:21:32.203Z,85.53
2018-02-06T10:22:32.189Z,86.00
2018-02-06T10:23:32.174Z,85.43
2018-02-06T10:24:32.159Z,85.15
2018-02-06T10:25:32.143Z,85.81
2018-02-06T10:26:32.129Z,85.24
2018-02-06T10:27:32.113Z,85.57
2018-02-06T10:28:32.098Z,85.19
2018-02-06T10:29:32.083Z,85.24
2018-02-06T10:30:32.068Z,84.63
2018-02-06T10:31:32.054Z,85.38
2018-02-06T10:32:32.038Z,85.15
2018-02-06T10:33:32.024Z,85.28
2018-02-06T10:34:32.009Z,85.66
2018-02-06T10:35:31.995Z,85.85
2018-02-06T10:36:31.979Z,85.47
2018-02-06T10:37:31.968Z,85.19
2018-02-06T10:38:31.950Z,84.91
2018-02-06T10:39:31.936Z,85.19
2018-02-06T10:40:31.920Z,84.63
2018-02-06T10:41:31.906Z,85.28
2018-02-06T10:42:31.891Z,85.28
2018-02-06T10:43:31.877Z,85.10
2018-02-06T10:44:31.862Z,85.95
2018-02-06T10:45:31.848Z,85.47
2018-02-06T10:46:31.834Z,85.85
2018-02-06T10:47:31.818Z,85.66
2018-02-06T10:48:31.804Z,85.10
2018-02-06T10:49:31.790Z,85.28
2018-02-06T10:50:31.780Z,85.47
2018-02-06T10:51:31.761Z,85.85
2018-02-06T10:52:31.745Z,85.72
2018-02-06T10:53:31.731Z,86.00
2018-02-06T10:54:31.717Z,86.80
2018-02-06T10:55:31.703Z,86.90
2018-02-06T10:56:31.686Z,87.08
2018-02-06T10:57:31.672Z,86.47
2018-02-06T10:58:31.657Z,87.18
2018-02-06T10:59:31.643Z,87.18
2018-02-06T11:00:31.627Z,88.12
2018-02-06T11:01:31.615Z,87.27
2018-02-06T11:02:31.598Z,86.90
2018-02-06T11:03:31.585Z,86.80
2018-02-06T11:04:31.569Z,86.23
2018-02-06T11:05:31.554Z,85.85
2018-02-06T11:06:31.540Z,86.42
2018-02-06T11:07:31.525Z,86.42
2018-02-06T11:08:31.511Z,87.18
2018-02-06T11:09:31.496Z,86.80
2018-02-06T11:10:31.481Z,86.61
2018-02-06T11:11:31.467Z,86.52
2018-02-06T11:12:31.451Z,86.80
2018-02-06T11:13:31.437Z,86.14
2018-02-06T11:14:31.422Z,86.33
2018-02-06T11:15:31.407Z,86.04
2018-02-06T11:16:31.391Z,86.80
2018-02-06T11:17:31.380Z,86.23
2018-02-06T11:18:31.365Z,86.42
2018-02-06T11:19:31.349Z,87.46
2018-02-06T11:20:31.333Z,87.18
2018-02-06T11:21:31.319Z,87.84
2018-02-06T11:22:31.304Z,87.93
2018-02-06T11:23:31.291Z,88.46
2018-02-06T11:24:31.274Z,88.88
2018-02-06T11:25:31.261Z,88.98
2018-02-06T11:26:31.252Z,88.79
2018-02-06T11:27:31.232Z,88.69
2018-02-06T11:28:31.216Z,89.07
2018-02-06T11:29:31.201Z,88.69
2018-02-06T11:30:31.187Z,88.79
2018-02-06T11:31:31.180Z,88.46
2018-02-06T11:32:31.156Z,88.55
2018-02-06T11:33:31.141Z,88.88
2018-02-06T11:34:31.127Z,89.69
2018-02-06T11:35:31.113Z,88.27
2018-02-06T11:36:31.096Z,89.50
2018-02-06T11:37:31.095Z,89.59
2018-02-06T11:38:31.067Z,89.78
2018-02-06T11:39:31.052Z,89.87
2018-02-06T11:40:31.037Z,89.31
2018-02-06T11:41:31.024Z,89.69
2018-02-06T11:42:31.006Z,89.78
2018-02-06T11:43:30.993Z,90.58
2018-02-06T11:44:30.976Z,89.87
2018-02-06T11:45:30.961Z,89.50
2018-02-06T11:46:30.946Z,89.97
2018-02-06T11:47:30.931Z,89.64
2018-02-06T11:48:30.915Z,89.69
2018-02-06T11:49:30.901Z,89.54
2018-02-06T11:50:30.889Z,89.78
2018-02-06T11:51:30.878Z,89.50
2018-02-06T11:52:30.855Z,90.63
2018-02-06T11:53:30.840Z,89.97
2018-02-06T11:54:30.825Z,89.31
2018-02-06T11:55:30.810Z,90.86
2018-02-06T11:56:30.797Z,90.16
2018-02-06T11:57:30.778Z,90.44
2018-02-06T11:58:30.764Z,90.82
2018-02-06T11:59:30.748Z,90.54
2018-02-06T12:00:30.734Z,90.30
2018-02-06T12:01:30.718Z,89.64
2018-02-06T12:02:30.702Z,89.31
2018-02-06T12:03:30.688Z,89.78
2018-02-06T12:04:30.672Z,90.54
2018-02-06T12:05:30.657Z,90.25
2018-02-06T12:06:30.642Z,91.15
2018-02-06T12:07:30.626Z,90.82
2018-02-06T12:08:30.610Z,90.96
2018-02-06T12:09:30.595Z,91.72
2018-02-06T12:10:30.581Z,90.68
2018-02-06T12:11:30.566Z,89.78
2018-02-06T12:12:30.553Z,90.11
2018-02-06T12:13:30.535Z,90.39
2018-02-06T12:14:30.519Z,90.49
2018-02-06T12:15:30.505Z,90.01
2018-02-06T12:16:30.488Z,90.77
2018-02-06T12:17:30.473Z,90.49
2018-02-06T12:18:30.458Z,90.25
2018-02-06T12:19:30.443Z,91.15
2018-02-06T12:20:30.427Z,91.24
2018-02-06T12:21:30.412Z,91.05
2018-02-06T12:22:30.398Z,90.91
2018-02-06T12:23:30.382Z,91.39
2018-02-06T12:24:30.366Z,92.76
2018-02-06T12:25:30.351Z,92.85
2018-02-06T12:26:30.336Z,92.66
2018-02-06T12:27:30.321Z,93.13
2018-02-06T12:28:30.305Z,92.85
2018-02-06T12:29:30.290Z,92.29
2018-02-06T12:30:30.276Z,92.85
2018-02-06T12:31:30.264Z,92.85
2018-02-06T12:32:30.247Z,93.42
2018-02-06T12:33:30.230Z,93.42
2018-02-06T12:34:30.215Z,93.42
2018-02-06T12:35:30.200Z,93.80
2018-02-06T12:36:30.184Z,94.74
2018-02-06T12:37:30.170Z,94.65
2018-02-06T12:38:30.155Z,95.31
2018-02-06T12:39:30.146Z,95.50
2018-02-06T12:40:30.125Z,95.97
2018-02-06T12:41:30.109Z,95.69
2018-02-06T12:42:30.094Z,96.16
2018-02-06T12:43:30.080Z,95.26
2018-02-06T12:44:30.065Z,95.45
2018-02-06T12:45:30.048Z,95.83
2018-02-06T12:46:30.035Z,96.59
2018-02-06T12:47:30.021Z,96.68
2018-02-06T12:48:30.005Z,97.15
2018-02-06T12:49:29.989Z,96.96
2018-02-06T12:50:29.974Z,97.34
2018-02-06T12:51:29.959Z,97.63
2018-02-06T12:52:29.943Z,98.28
2018-02-06T12:53:29.928Z,97.81
2018-02-06T12:54:29.913Z,97.06
2018-02-06T12:55:29.898Z,97.34
2018-02-06T12:56:29.883Z,97.44
2018-02-06T12:57:29.868Z,97.72
2018-02-06T12:58:29.853Z,97.81
2018-02-06T12:59:29.840Z,98.38
2018-02-06T13:00:29.822Z,98.19
2018-02-06T13:01:29.807Z,98.28
2018-02-06T13:02:29.792Z,98.19
2018-02-06T13:03:29.783Z,97.91
2018-02-06T13:04:29.762Z,97.53
2018-02-06T13:05:29.747Z,98.19
2018-02-06T13:06:29.731Z,98.19
2018-02-06T13:07:29.716Z,98.19
2018-02-06T13:08:29.701Z,98.66
2018-02-06T13:09:29.686Z,98.66
2018-02-06T13:10:29.670Z,99.23
2018-02-06T13:11:29.656Z,99.42
2018-02-06T13:12:29.641Z,99.71
2018-02-06T13:13:29.624Z,99.33
2018-02-06T13:14:29.610Z,99.52
2018-02-06T13:15:29.595Z,99.04
2018-02-06T13:16:29.579Z,99.52
2018-02-06T13:17:29.564Z,99.52
2018-02-06T13:18:29.549Z,99.99
2018-02-06T13:19:29.534Z,99.99
2018-02-06T13:20:29.520Z,99.99
2018-02-06T13:21:29.504Z,99.99
2018-02-06T13:22:29.489Z,99.99
2018-02-06T13:23:29.474Z,99.99
2018-02-06T13:24:29.458Z,99.99
2018-02-06T13:25:29.444Z,99.99
2018-02-06T13:26:29.435Z,99.99
2018-02-06T13:27:29.414Z,99.99
2018-02-06T13:28:29.398Z,99.99
2018-02-06T13:29:29.386Z,99.99
2018-02-06T13:30:29.369Z,99.99
2018-02-06T13:31:29.354Z,99.99
2018-02-06T13:32:29.338Z,99.99
2018-02-06T13:33:29.324Z,99.95
2018-02-06T13:34:29.309Z,99.99
2018-02-06T13:35:29.298Z,99.99
2018-02-06T13:36:29.278Z,99.99
2018-02-06T13:37:29.264Z,99.99
2018-02-06T13:38:29.249Z,99.99
2018-02-06T13:39:29.235Z,99.99
2018-02-06T13:40:29.219Z,99.99
2018-02-06T13:41:29.204Z,99.99
2018-02-06T13:42:29.189Z,99.99
2018-02-06T13:43:29.175Z,99.99
2018-02-06T13:44:29.160Z,99.99
2018-02-06T13:45:29.144Z,99.99
2018-02-06T13:46:29.132Z,99.99
2018-02-06T13:47:29.117Z,99.99
2018-02-06T13:48:29.100Z,99.99
2018-02-06T13:49:29.087Z,99.99
2018-02-06T13:50:29.071Z,99.99
2018-02-06T13:51:29.056Z,99.99
2018-02-06T13:52:29.042Z,99.80
2018-02-06T13:53:29.027Z,99.99
2018-02-06T13:54:29.013Z,99.99
2018-02-06T13:55:28.997Z,99.99
2018-02-06T13:56:28.983Z,99.99
2018-02-06T13:57:28.968Z,99.99
2018-02-06T13:58:28.955Z,99.99
2018-02-06T13:59:28.939Z,99.99
2018-02-06T14:00:28.923Z,99.99
2018-02-06T14:01:28.909Z,99.99
2018-02-06T14:02:28.894Z,99.99
2018-02-06T14:03:28.880Z,99.99
2018-02-06T14:04:28.864Z,99.99
2018-02-06T14:05:28.850Z,99.99
2018-02-06T14:06:28.836Z,99.99
2018-02-06T14:07:28.820Z,99.99
2018-02-06T14:08:28.805Z,99.99
2018-02-06T14:09:28.791Z,99.99
2018-02-06T14:10:28.776Z,99.99
2018-02-06T14:11:28.770Z,99.99
2018-02-06T14:12:28.746Z,99.99
2018-02-06T14:13:28.732Z,99.99
2018-02-06T14:14:28.717Z,99.99
2018-02-06T14:15:28.703Z,99.99
2018-02-06T14:16:28.688Z,99.99
2018-02-06T14:17:28.673Z,99.99
2018-02-06T14:18:28.658Z,99.99
2018-02-06T14:19:28.643Z,99.99
2018-02-06T14:20:28.654Z,99.99
2018-02-06T14:21:28.613Z,99.99
2018-02-06T14:22:28.598Z,99.99
2018-02-06T14:23:28.584Z,99.99
2018-02-06T14:24:28.568Z,99.99
2018-02-06T14:25:28.554Z,99.99
2018-02-06T14:26:28.539Z,99.99
2018-02-06T14:27:28.524Z,99.99
2018-02-06T14:28:28.509Z,99.99
2018-02-06T14:29:28.493Z,99.99
2018-02-06T14:30:28.479Z,99.99
2018-02-06T14:31:28.464Z,99.99
2018-02-06T14:32:28.448Z,99.99
2018-02-06T14:33:28.433Z,99.99
2018-02-06T14:34:28.418Z,99.99
2018-02-06T14:35:28.402Z,99.99
2018-02-06T14:36:28.389Z,99.99
2018-02-06T14:37:28.372Z,99.99
2018-02-06T14:38:28.359Z,99.99
2018-02-06T14:39:28.341Z,99.99
2018-02-06T14:40:28.326Z,99.99
2018-02-06T14:41:28.310Z,99.99
2018-02-06T14:42:28.295Z,99.99
2018-02-06T14:43:28.281Z,99.99
2018-02-06T14:44:28.265Z,99.99
2018-02-06T14:45:28.252Z,99.99
2018-02-06T14:46:28.235Z,99.99
2018-02-06T14:47:28.219Z,99.99
2018-02-06T14:48:28.203Z,99.99